Time;durP1;ratioP1;P1;durP2;ratioP2;P2;SDS_P1;SDS_P2;PMS_P1;PMS_P2;Temp;Humidity;BMP_temperature;BMP_pressure;BME280_temperature;BME280_humidity;BME280_pressure;Samples;Min_cycle;Max_cycle;Signal;HPM_P1;HPM_P2
2023/04/23 00:00:01;;;;;;;1.20;1.15;;;;;;;;;;5023779;28;58470;-64
2023/04/23 00:02:28;;;;;;;1.40;1.30;;;;;;;;;;5022447;28;58513;-64
2023/04/23 00:04:54;;;;;;;1.65;1.55;;;;;;;;;;5022983;28;64237;-65
2023/04/23 00:07:20;;;;;;;1.50;1.40;;;;;;;;;;5024130;28;59407;-65
2023/04/23 00:09:46;;;;;;;1.40;1.20;;;;;;;;;;5022772;28;58379;-65
2023/04/23 00:12:11;;;;;;;1.40;1.30;;;;;;;;;;5021023;28;58479;-64
2023/04/23 00:14:36;;;;;;;1.52;1.42;;;;;;;;;;5024207;28;57829;-65
2023/04/23 00:17:01;;;;;;;1.50;1.40;;;;;;;;;;5024415;28;58673;-64
2023/04/23 00:19:27;;;;;;;2.08;1.40;;;;;;;;;;5024237;28;58357;-65
2023/04/23 00:21:52;;;;;;;1.60;1.50;;;;;;;;;;5024322;28;58646;-64
2023/04/23 00:24:19;;;;;;;1.40;1.30;;;;;;;;;;5023306;28;58839;-65
2023/04/23 00:26:44;;;;;;;1.40;1.30;;;;;;;;;;5022376;28;58707;-65
2023/04/23 00:29:09;;;;;;;1.30;1.20;;;;;;;;;;5025459;28;58824;-65
2023/04/23 00:31:34;;;;;;;1.58;1.45;;;;;;;;;;5023781;28;59051;-64
2023/04/23 00:33:59;;;;;;;1.50;1.40;;;;;;;;;;5024243;28;58844;-64
2023/04/23 00:36:25;;;;;;;1.55;1.33;;;;;;;;;;5024408;28;58757;-66
2023/04/23 00:38:50;;;;;;;1.65;1.55;;;;;;;;;;5023650;28;58516;-64
2023/04/23 00:41:15;;;;;;;1.60;1.47;;;;;;;;;;5022330;28;58743;-65
2023/04/23 00:43:41;;;;;;;1.95;1.83;;;;;;;;;;5022794;28;58844;-64
2023/04/23 00:46:06;;;;;;;1.77;1.67;;;;;;;;;;5023053;28;59096;-65
2023/04/23 00:48:32;;;;;;;1.50;1.40;;;;;;;;;;5024873;28;59369;-65
2023/04/23 00:50:59;;;;;;;1.63;1.52;;;;;;;;;;5022452;28;59481;-65
2023/04/23 00:53:24;;;;;;;1.60;1.50;;;;;;;;;;5025170;28;58571;-64
2023/04/23 00:55:49;;;;;;;1.40;1.30;;;;;;;;;;5023330;28;58972;-64
2023/04/23 00:58:14;;;;;;;1.70;1.60;;;;;;;;;;5021793;28;58682;-65
2023/04/23 01:00:43;;;;;;;1.70;1.60;;;;;;;;;;5024517;28;58799;-64
2023/04/23 01:03:09;;;;;;;1.80;1.70;;;;;;;;;;5022768;28;59113;-65
2023/04/23 01:05:34;;;;;;;1.83;1.55;;;;;;;;;;5023707;28;58852;-65
2023/04/23 01:07:59;;;;;;;1.50;1.40;;;;;;;;;;5023238;28;58813;-65
2023/04/23 01:10:24;;;;;;;1.48;1.38;;;;;;;;;;5022415;28;59231;-65
2023/04/23 01:12:50;;;;;;;1.45;1.35;;;;;;;;;;5023594;28;60309;-64
2023/04/23 01:15:15;;;;;;;1.60;1.40;;;;;;;;;;5022879;28;58680;-65
2023/04/23 01:17:41;;;;;;;1.00;1.00;;;;;;;;;;5024201;28;58636;-64
2023/04/23 01:20:07;;;;;;;1.40;1.38;;;;;;;;;;5026922;28;58368;-64
2023/04/23 01:22:36;;;;;;;1.25;1.15;;;;;;;;;;5028849;28;58889;-65
2023/04/23 01:25:02;;;;;;;1.77;1.67;;;;;;;;;;5029720;28;58627;-65
2023/04/23 01:27:27;;;;;;;1.40;1.30;;;;;;;;;;5029944;28;58431;-65
2023/04/23 01:29:52;;;;;;;1.40;1.30;;;;;;;;;;5027922;28;59393;-65
2023/04/23 01:32:18;;;;;;;1.70;1.60;;;;;;;;;;5030577;28;58536;-64
2023/04/23 01:34:45;;;;;;;1.52;1.42;;;;;;;;;;5032671;28;58331;-64
2023/04/23 01:37:10;;;;;;;1.60;1.50;;;;;;;;;;5028053;28;58461;-64
2023/04/23 01:39:35;;;;;;;1.40;1.30;;;;;;;;;;5029102;28;58717;-64
2023/04/23 01:42:01;;;;;;;1.48;1.38;;;;;;;;;;5028612;28;59079;-65
2023/04/23 01:44:27;;;;;;;1.55;1.45;;;;;;;;;;5029693;28;58813;-65
2023/04/23 01:46:52;;;;;;;1.00;1.00;;;;;;;;;;5030153;28;58415;-64
2023/04/23 01:49:17;;;;;;;1.10;1.10;;;;;;;;;;5029169;28;59378;-64
2023/04/23 01:51:42;;;;;;;1.73;1.63;;;;;;;;;;5027808;28;60035;-65
2023/04/23 01:54:08;;;;;;;1.55;1.45;;;;;;;;;;5029233;28;58701;-64
2023/04/23 01:56:34;;;;;;;1.47;1.37;;;;;;;;;;5029279;28;59419;-65
2023/04/23 01:59:00;;;;;;;1.60;1.50;;;;;;;;;;5028144;28;58357;-64
2023/04/23 02:01:39;;;;;;;1.30;1.20;;;;;;;;;;5028275;28;59939;-64
2023/04/23 02:04:04;;;;;;;1.35;1.25;;;;;;;;;;5026514;28;58862;-64
2023/04/23 02:06:30;;;;;;;1.30;1.20;;;;;;;;;;5031309;28;58820;-65
2023/04/23 02:08:55;;;;;;;1.33;1.23;;;;;;;;;;5028984;28;59027;-64
2023/04/23 02:11:21;;;;;;;1.33;1.23;;;;;;;;;;5029234;28;58674;-65
2023/04/23 02:13:46;;;;;;;1.40;1.30;;;;;;;;;;5027747;28;58480;-64
2023/04/23 02:16:11;;;;;;;1.23;1.13;;;;;;;;;;5029405;28;58743;-65
2023/04/23 02:18:37;;;;;;;1.45;1.35;;;;;;;;;;5029072;28;58347;-65
2023/04/23 02:21:03;;;;;;;1.45;1.35;;;;;;;;;;5028041;28;58421;-65
2023/04/23 02:23:28;;;;;;;1.65;1.55;;;;;;;;;;5029221;28;58929;-65
2023/04/23 02:25:53;;;;;;;1.40;1.30;;;;;;;;;;5032771;28;58236;-65
2023/04/23 02:28:18;;;;;;;1.30;1.20;;;;;;;;;;5028470;28;58805;-65
2023/04/23 02:30:46;;;;;;;1.75;1.65;;;;;;;;;;5030086;28;58898;-65
2023/04/23 02:33:11;;;;;;;1.45;1.35;;;;;;;;;;5026823;28;58482;-64
2023/04/23 02:35:37;;;;;;;1.30;1.20;;;;;;;;;;5022668;28;59047;-64
2023/04/23 02:38:02;;;;;;;1.27;1.17;;;;;;;;;;5026587;28;58848;-65
2023/04/23 02:40:27;;;;;;;1.30;1.20;;;;;;;;;;5026985;28;58974;-65
2023/04/23 02:42:52;;;;;;;1.20;1.10;;;;;;;;;;5025761;28;58352;-64
2023/04/23 02:45:17;;;;;;;1.37;1.27;;;;;;;;;;5025027;28;58344;-64
2023/04/23 02:47:42;;;;;;;1.37;1.30;;;;;;;;;;5025405;28;58758;-65
2023/04/23 02:50:08;;;;;;;1.08;1.08;;;;;;;;;;5025745;28;58346;-64
2023/04/23 02:52:33;;;;;;;1.30;1.20;;;;;;;;;;5026295;28;58445;-64
2023/04/23 02:54:59;;;;;;;1.50;1.40;;;;;;;;;;5027192;28;58594;-65
2023/04/23 02:57:24;;;;;;;1.60;1.50;;;;;;;;;;5026645;28;59576;-64
2023/04/23 02:59:49;;;;;;;1.83;1.73;;;;;;;;;;5028676;28;58792;-65
2023/04/23 03:02:14;;;;;;;0.87;0.87;;;;;;;;;;5025317;28;58563;-65
2023/04/23 03:04:40;;;;;;;1.60;1.50;;;;;;;;;;5025935;28;58293;-65
2023/04/23 03:07:05;;;;;;;1.37;1.27;;;;;;;;;;5025701;28;58415;-65
2023/04/23 03:09:30;;;;;;;1.20;1.20;;;;;;;;;;5025665;28;58795;-64
2023/04/23 03:11:56;;;;;;;1.30;1.20;;;;;;;;;;5027146;28;58414;-65
2023/04/23 03:14:21;;;;;;;1.50;1.40;;;;;;;;;;5025949;28;58951;-65
2023/04/23 03:16:46;;;;;;;1.53;1.43;;;;;;;;;;5024254;28;58460;-64
2023/04/23 03:19:12;;;;;;;1.30;1.20;;;;;;;;;;5026130;28;58403;-65
2023/04/23 03:21:37;;;;;;;1.47;1.37;;;;;;;;;;5026293;28;58990;-64
2023/04/23 03:24:02;;;;;;;0.95;0.95;;;;;;;;;;5024920;28;59359;-65
2023/04/23 03:26:27;;;;;;;1.40;1.17;;;;;;;;;;5025860;28;59005;-64
2023/04/23 03:28:52;;;;;;;1.58;1.45;;;;;;;;;;5024064;28;58771;-64
2023/04/23 03:31:17;;;;;;;1.40;1.30;;;;;;;;;;5025200;28;58279;-64
2023/04/23 03:33:42;;;;;;;1.30;1.20;;;;;;;;;;5025185;28;59371;-64
2023/04/23 03:36:08;;;;;;;1.30;1.20;;;;;;;;;;5023072;28;58757;-64
2023/04/23 03:38:33;;;;;;;1.53;1.43;;;;;;;;;;5025460;28;58348;-64
2023/04/23 03:40:58;;;;;;;1.40;1.30;;;;;;;;;;5026509;28;59290;-65
2023/04/23 03:43:23;;;;;;;1.60;1.50;;;;;;;;;;5024555;28;58433;-65
2023/04/23 03:45:48;;;;;;;1.30;1.20;;;;;;;;;;5026247;28;58180;-64
2023/04/23 03:48:13;;;;;;;1.35;1.25;;;;;;;;;;5025414;28;58699;-64
2023/04/23 03:50:39;;;;;;;12.63;1.70;;;;;;;;;;5027264;28;58135;-64
2023/04/23 03:53:05;;;;;;;1.52;1.42;;;;;;;;;;5026205;28;58929;-64
2023/04/23 03:55:30;;;;;;;1.67;1.58;;;;;;;;;;5024127;28;58687;-65
2023/04/23 03:57:55;;;;;;;1.00;1.00;;;;;;;;;;5023569;28;58654;-64
2023/04/23 04:00:20;;;;;;;1.13;1.05;;;;;;;;;;5023450;28;59395;-65
2023/04/23 04:02:45;;;;;;;1.27;1.17;;;;;;;;;;5025075;28;58674;-65
2023/04/23 04:05:11;;;;;;;1.10;1.00;;;;;;;;;;5024797;28;59097;-64
2023/04/23 04:07:36;;;;;;;1.45;1.27;;;;;;;;;;5021118;28;58684;-65
2023/04/23 04:10:02;;;;;;;1.17;1.08;;;;;;;;;;5026402;28;58961;-64
2023/04/23 04:12:27;;;;;;;1.60;1.50;;;;;;;;;;5023439;28;58881;-64
2023/04/23 04:14:52;;;;;;;1.40;1.30;;;;;;;;;;5023008;28;59075;-65
2023/04/23 04:17:17;;;;;;;1.33;1.23;;;;;;;;;;5025035;28;58423;-64
2023/04/23 04:19:42;;;;;;;1.92;1.80;;;;;;;;;;5025489;28;58745;-65
2023/04/23 04:22:08;;;;;;;1.20;1.10;;;;;;;;;;5023075;28;58394;-65
2023/04/23 04:24:34;;;;;;;1.58;1.48;;;;;;;;;;5024057;28;59762;-64
2023/04/23 04:27:00;;;;;;;2.20;2.00;;;;;;;;;;5023768;28;59104;-65
2023/04/23 04:29:25;;;;;;;1.50;1.40;;;;;;;;;;5023408;28;58360;-65
2023/04/23 04:31:51;;;;;;;1.87;1.77;;;;;;;;;;5023116;28;58493;-64
2023/04/23 04:34:16;;;;;;;1.17;1.08;;;;;;;;;;5023383;28;58588;-64
2023/04/23 04:36:42;;;;;;;1.60;1.50;;;;;;;;;;5024382;28;58230;-65
2023/04/23 04:39:07;;;;;;;1.45;1.35;;;;;;;;;;5024899;28;59110;-65
2023/04/23 04:41:32;;;;;;;1.50;1.40;;;;;;;;;;5023269;28;58714;-64
2023/04/23 04:43:58;;;;;;;1.30;1.23;;;;;;;;;;5023251;28;58853;-64
2023/04/23 04:46:24;;;;;;;1.80;1.70;;;;;;;;;;5025002;28;58447;-64
2023/04/23 04:48:50;;;;;;;1.42;1.33;;;;;;;;;;5024741;28;58399;-64
2023/04/23 04:51:15;;;;;;;1.27;1.17;;;;;;;;;;5024420;28;58528;-64
2023/04/23 04:53:40;;;;;;;1.33;1.23;;;;;;;;;;5024872;28;58369;-65
2023/04/23 04:56:05;;;;;;;1.95;1.83;;;;;;;;;;5026039;28;58450;-65
2023/04/23 04:58:30;;;;;;;1.73;1.63;;;;;;;;;;5022720;28;58666;-65
2023/04/23 05:00:55;;;;;;;1.47;1.37;;;;;;;;;;5023058;28;58602;-64
2023/04/23 05:03:21;;;;;;;1.13;1.03;;;;;;;;;;5023531;28;58693;-64
2023/04/23 05:05:47;;;;;;;1.57;1.47;;;;;;;;;;5025948;28;58896;-65
2023/04/23 05:08:15;;;;;;;1.65;1.55;;;;;;;;;;5025254;28;58491;-64
2023/04/23 05:10:40;;;;;;;;;;;;;;;;;;5023534;28;58439;-65
2023/04/23 05:13:05;;;;;;;1.70;1.60;;;;;;;;;;5021725;28;59097;-63
2023/04/23 05:15:30;;;;;;;1.40;1.30;;;;;;;;;;5022615;28;58487;-65
2023/04/23 05:17:56;;;;;;;1.60;1.50;;;;;;;;;;5024311;28;58463;-63
2023/04/23 05:20:21;;;;;;;1.60;1.50;;;;;;;;;;5022990;28;58765;-65
2023/04/23 05:22:46;;;;;;;1.63;1.53;;;;;;;;;;5023350;28;58955;-65
2023/04/23 05:25:11;;;;;;;1.57;1.47;;;;;;;;;;5022496;28;58206;-65
2023/04/23 05:27:37;;;;;;;1.65;1.55;;;;;;;;;;5024935;28;58566;-66
2023/04/23 05:30:03;;;;;;;1.52;1.42;;;;;;;;;;5025872;28;58317;-63
2023/04/23 05:32:28;;;;;;;1.33;1.23;;;;;;;;;;5023305;28;58386;-64
2023/04/23 05:34:54;;;;;;;1.53;1.43;;;;;;;;;;5025419;28;58329;-65
2023/04/23 05:37:20;;;;;;;2.25;2.05;;;;;;;;;;5025618;28;58371;-65
2023/04/23 05:39:45;;;;;;;1.90;1.80;;;;;;;;;;5024553;28;58752;-64
2023/04/23 05:42:11;;;;;;;1.87;1.77;;;;;;;;;;5024083;28;58477;-65
2023/04/23 05:44:36;;;;;;;2.25;2.05;;;;;;;;;;5023783;28;58360;-65
2023/04/23 05:47:01;;;;;;;1.48;1.38;;;;;;;;;;5026334;28;58125;-65
2023/04/23 05:49:26;;;;;;;2.40;2.20;;;;;;;;;;5024796;28;58362;-64
2023/04/23 05:51:52;;;;;;;1.90;1.80;;;;;;;;;;5025620;28;59280;-65
2023/04/23 05:54:17;;;;;;;2.35;2.15;;;;;;;;;;5026308;28;58575;-65
2023/04/23 05:56:42;;;;;;;1.63;1.52;;;;;;;;;;5039907;28;59103;-65
2023/04/23 05:59:08;;;;;;;1.80;1.70;;;;;;;;;;5024229;28;59738;-64
2023/04/23 06:01:33;;;;;;;1.77;1.67;;;;;;;;;;5023545;28;58855;-64
2023/04/23 06:03:58;;;;;;;1.85;1.75;;;;;;;;;;5023310;28;58462;-65
2023/04/23 06:06:24;;;;;;;2.30;2.10;;;;;;;;;;5025205;28;58614;-64
2023/04/23 06:08:49;;;;;;;2.17;1.93;;;;;;;;;;5028693;28;58508;-65
2023/04/23 06:11:15;;;;;;;1.92;1.73;;;;;;;;;;5031434;28;59271;-65
2023/04/23 06:13:41;;;;;;;1.70;1.60;;;;;;;;;;5030481;28;58415;-65
2023/04/23 06:16:07;;;;;;;2.17;2.00;;;;;;;;;;5030275;28;59229;-65
2023/04/23 06:18:32;;;;;;;1.70;1.60;;;;;;;;;;5029748;28;60639;-64
2023/04/23 06:21:00;;;;;;;2.05;1.95;;;;;;;;;;5031200;28;58820;-65
2023/04/23 06:23:25;;;;;;;2.22;2.03;;;;;;;;;;5032072;28;58893;-65
2023/04/23 06:25:50;;;;;;;2.15;2.03;;;;;;;;;;5029473;28;58750;-64
2023/04/23 06:28:15;;;;;;;2.50;2.30;;;;;;;;;;5028621;28;58295;-64
2023/04/23 06:30:41;;;;;;;2.40;2.20;;;;;;;;;;5029551;28;58439;-65
2023/04/23 06:33:07;;;;;;;2.33;2.13;;;;;;;;;;5029715;28;58922;-64
2023/04/23 06:35:33;;;;;;;2.42;2.22;;;;;;;;;;5028663;28;59092;-65
2023/04/23 06:37:58;;;;;;;2.97;2.67;;;;;;;;;;5030429;28;58632;-65
2023/04/23 06:40:23;;;;;;;2.60;2.40;;;;;;;;;;5030884;28;58383;-65
2023/04/23 06:42:48;;;;;;;2.63;2.43;;;;;;;;;;5030379;28;58774;-65
2023/04/23 06:45:14;;;;;;;2.37;2.17;;;;;;;;;;5029381;28;58842;-65
2023/04/23 06:47:39;;;;;;;2.80;2.60;;;;;;;;;;5029912;28;58501;-65
2023/04/23 06:50:05;;;;;;;2.43;2.23;;;;;;;;;;5027444;28;58381;-65
2023/04/23 06:52:30;;;;;;;3.53;2.90;;;;;;;;;;5026482;28;58642;-65
2023/04/23 06:54:55;;;;;;;3.07;2.77;;;;;;;;;;5026041;28;58762;-65
2023/04/23 06:57:20;;;;;;;3.05;2.78;;;;;;;;;;5028778;28;58949;-64
2023/04/23 06:59:45;;;;;;;3.50;3.20;;;;;;;;;;5027127;27;58168;-64
2023/04/23 07:02:11;;;;;;;2.57;2.37;;;;;;;;;;5028748;28;58394;-65
2023/04/23 07:04:36;;;;;;;3.83;3.53;;;;;;;;;;5027801;28;58550;-65
2023/04/23 07:07:01;;;;;;;3.22;2.92;;;;;;;;;;5029542;28;58870;-65
2023/04/23 07:09:27;;;;;;;4.15;3.83;;;;;;;;;;5027873;28;59193;-66
2023/04/23 07:11:52;;;;;;;3.60;3.30;;;;;;;;;;5021072;28;59247;-65
2023/04/23 07:14:17;;;;;;;4.73;4.30;;;;;;;;;;5024082;28;58318;-65
2023/04/23 07:16:43;;;;;;;3.70;3.40;;;;;;;;;;5025707;28;58517;-64
2023/04/23 07:19:08;;;;;;;4.27;3.90;;;;;;;;;;5026208;28;58622;-65
2023/04/23 07:21:33;;;;;;;3.50;3.13;;;;;;;;;;5023942;28;58955;-64
2023/04/23 07:23:59;;;;;;;5.07;4.57;;;;;;;;;;5022711;28;58646;-65
2023/04/23 07:26:26;;;;;;;5.18;3.90;;;;;;;;;;5024965;28;58514;-64
2023/04/23 07:28:51;;;;;;;4.60;4.13;;;;;;;;;;5024234;28;58853;-65
2023/04/23 07:31:16;;;;;;;4.80;4.40;;;;;;;;;;5027384;28;58277;-65
2023/04/23 07:33:41;;;;;;;4.85;4.45;;;;;;;;;;5027118;28;58119;-65
2023/04/23 07:36:06;;;;;;;4.97;4.45;;;;;;;;;;5026561;28;58209;-64
2023/04/23 07:38:32;;;;;;;5.38;4.80;;;;;;;;;;5028752;28;57788;-65
2023/04/23 07:40:57;;;;;;;4.57;4.18;;;;;;;;;;5028433;28;57996;-64
2023/04/23 07:43:22;;;;;;;5.38;4.07;;;;;;;;;;5025708;28;58291;-64
2023/04/23 07:45:47;;;;;;;5.60;5.03;;;;;;;;;;5026662;28;58003;-64
2023/04/23 07:48:12;;;;;;;5.33;4.10;;;;;;;;;;5027227;28;58334;-64
2023/04/23 07:50:37;;;;;;;4.27;3.87;;;;;;;;;;5027264;28;58508;-65
2023/04/23 07:53:02;;;;;;;4.83;4.40;;;;;;;;;;5029015;28;58916;-65
2023/04/23 07:55:28;;;;;;;3.90;3.50;;;;;;;;;;5028597;28;58675;-64
2023/04/23 07:57:53;;;;;;;4.53;4.13;;;;;;;;;;5025621;28;59015;-64
2023/04/23 08:00:18;;;;;;;4.60;4.20;;;;;;;;;;5028758;28;58420;-65
2023/04/23 08:02:43;;;;;;;5.37;4.27;;;;;;;;;;5028376;28;58363;-64
2023/04/23 08:05:08;;;;;;;5.70;5.10;;;;;;;;;;5028331;28;58462;-65
2023/04/23 08:07:33;;;;;;;5.00;4.60;;;;;;;;;;5029478;28;58415;-64
2023/04/23 08:10:02;;;;;;;3.70;3.40;;;;;;;;;;5027963;28;58621;-65
2023/04/23 08:12:28;;;;;;;5.30;4.53;;;;;;;;;;5027704;28;58357;-64
2023/04/23 08:14:53;;;;;;;4.82;4.35;;;;;;;;;;5027704;28;59211;-65
2023/04/23 08:17:19;;;;;;;4.45;4.05;;;;;;;;;;5028620;28;58587;-65
2023/04/23 08:19:44;;;;;;;5.00;4.50;;;;;;;;;;5029344;28;59119;-64
2023/04/23 08:22:09;;;;;;;10.67;5.23;;;;;;;;;;5027224;28;58464;-65
2023/04/23 08:24:34;;;;;;;5.30;4.80;;;;;;;;;;5027109;28;58498;-65
2023/04/23 08:27:00;;;;;;;6.33;4.50;;;;;;;;;;5027822;28;59033;-64
2023/04/23 08:29:25;;;;;;;7.60;4.80;;;;;;;;;;5027520;28;58492;-64
2023/04/23 08:31:50;;;;;;;5.13;4.53;;;;;;;;;;5027673;28;58264;-65
2023/04/23 08:34:16;;;;;;;6.70;5.27;;;;;;;;;;5028369;28;58961;-65
2023/04/23 08:36:41;;;;;;;5.65;5.15;;;;;;;;;;5027899;28;58585;-65
2023/04/23 08:39:06;;;;;;;5.80;5.20;;;;;;;;;;5027523;28;58492;-65
2023/04/23 08:41:37;;;;;;;5.63;5.13;;;;;;;;;;5028827;28;58116;-65
2023/04/23 08:44:06;;;;;;;5.07;4.57;;;;;;;;;;5028836;28;58387;-64
2023/04/23 08:46:34;;;;;;;5.65;5.07;;;;;;;;;;5027750;28;58690;-65
2023/04/23 08:49:01;;;;;;;5.25;4.75;;;;;;;;;;5027774;28;58534;-65
2023/04/23 08:51:29;;;;;;;6.32;5.22;;;;;;;;;;5026090;28;58204;-65
2023/04/23 08:53:55;;;;;;;6.03;5.40;;;;;;;;;;5028766;28;58372;-64
2023/04/23 08:56:20;;;;;;;5.22;4.72;;;;;;;;;;5025622;28;58772;-65
2023/04/23 08:58:46;;;;;;;4.40;4.10;;;;;;;;;;5027320;28;58361;-65
2023/04/23 09:01:11;;;;;;;4.20;3.80;;;;;;;;;;5028211;28;59009;-65
2023/04/23 09:03:36;;;;;;;4.50;4.10;;;;;;;;;;5027533;28;58459;-65
2023/04/23 09:06:02;;;;;;;6.78;4.68;;;;;;;;;;5027707;28;59928;-65
2023/04/23 09:08:27;;;;;;;5.10;3.78;;;;;;;;;;5027605;28;58423;-65
2023/04/23 09:10:54;;;;;;;5.00;4.60;;;;;;;;;;5028272;28;58345;-65
2023/04/23 09:13:19;;;;;;;6.28;4.47;;;;;;;;;;5027779;28;58448;-65
2023/04/23 09:15:45;;;;;;;6.70;3.87;;;;;;;;;;5026896;28;58188;-64
2023/04/23 09:18:10;;;;;;;4.40;3.83;;;;;;;;;;5023244;28;58307;-65
2023/04/23 09:20:35;;;;;;;4.90;4.50;;;;;;;;;;5027777;28;58597;-64
2023/04/23 09:23:05;;;;;;;5.88;4.97;;;;;;;;;;5027086;28;59692;-65
2023/04/23 09:25:30;;;;;;;6.20;4.13;;;;;;;;;;5026967;28;58379;-65
2023/04/23 09:27:57;;;;;;;5.53;3.70;;;;;;;;;;5025200;28;58375;-65
2023/04/23 09:30:24;;;;;;;3.95;3.65;;;;;;;;;;5026328;28;58369;-64
2023/04/23 09:32:50;;;;;;;5.47;4.47;;;;;;;;;;5025095;28;60019;-64
2023/04/23 09:35:18;;;;;;;4.53;3.28;;;;;;;;;;5025708;28;58124;-64
2023/04/23 09:37:47;;;;;;;4.55;4.13;;;;;;;;;;5027536;28;58367;-64
2023/04/23 09:40:13;;;;;;;3.67;3.38;;;;;;;;;;5027247;28;59099;-64
2023/04/23 09:42:38;;;;;;;3.88;3.28;;;;;;;;;;5029510;28;58422;-65
2023/04/23 09:45:07;;;;;;;3.03;2.83;;;;;;;;;;5028545;28;58443;-65
2023/04/23 09:47:51;;;;;;;4.32;3.50;;;;;;;;;;5031085;28;58406;-65
2023/04/23 09:50:17;;;;;;;4.03;3.67;;;;;;;;;;5031450;28;58802;-65
2023/04/23 09:52:42;;;;;;;3.72;3.42;;;;;;;;;;5030911;28;58733;-64
2023/04/23 09:55:07;;;;;;;4.25;3.58;;;;;;;;;;5030296;28;58658;-65
2023/04/23 09:57:37;;;;;;;3.15;2.60;;;;;;;;;;5028225;28;64035;-65
2023/04/23 10:00:12;;;;;;;5.30;3.60;;;;;;;;;;5030265;28;60004;-64
2023/04/23 10:02:38;;;;;;;2.80;2.42;;;;;;;;;;5030064;28;59576;-64
2023/04/23 10:05:13;;;;;;;4.28;2.72;;;;;;;;;;5029927;28;58871;-65
2023/04/23 10:07:38;;;;;;;3.33;2.88;;;;;;;;;;5028967;28;58919;-64
2023/04/23 10:10:04;;;;;;;3.80;3.42;;;;;;;;;;5030245;28;59489;-65
2023/04/23 10:12:29;;;;;;;3.03;2.83;;;;;;;;;;5030523;28;58577;-65
2023/04/23 10:14:56;;;;;;;2.47;2.27;;;;;;;;;;5030430;28;58655;-64
2023/04/23 10:17:21;;;;;;;4.88;3.25;;;;;;;;;;5029535;28;58381;-64
2023/04/23 10:19:47;;;;;;;3.30;2.97;;;;;;;;;;5029843;28;58423;-64
2023/04/23 10:22:14;;;;;;;2.92;2.70;;;;;;;;;;5029381;28;58920;-64
2023/04/23 10:24:40;;;;;;;3.77;2.90;;;;;;;;;;5030331;27;58239;-63
2023/04/23 10:27:09;;;;;;;3.92;3.10;;;;;;;;;;5030196;28;58494;-64
2023/04/23 10:29:35;;;;;;;2.58;2.38;;;;;;;;;;5030425;28;58534;-64
2023/04/23 10:32:05;;;;;;;3.42;2.22;;;;;;;;;;5030302;28;58988;-64
2023/04/23 10:34:30;;;;;;;3.08;2.60;;;;;;;;;;5028325;28;58664;-64
2023/04/23 10:36:58;;;;;;;3.47;3.15;;;;;;;;;;5029406;28;58362;-64
2023/04/23 10:39:24;;;;;;;2.77;2.57;;;;;;;;;;5029919;28;58546;-64
2023/04/23 10:41:51;;;;;;;2.75;2.47;;;;;;;;;;5029872;28;58759;-64
2023/04/23 10:44:20;;;;;;;3.28;3.00;;;;;;;;;;5030894;28;59165;-65
2023/04/23 10:46:53;;;;;;;2.55;2.30;;;;;;;;;;5030632;28;60145;-64
2023/04/23 10:49:20;;;;;;;3.17;2.92;;;;;;;;;;5028113;28;58395;-64
2023/04/23 10:51:46;;;;;;;2.70;2.50;;;;;;;;;;5029969;27;58281;-64
2023/04/23 10:54:15;;;;;;;2.67;2.47;;;;;;;;;;5026551;28;59725;-64
2023/04/23 10:56:41;;;;;;;3.65;3.28;;;;;;;;;;5029583;28;58410;-64
2023/04/23 10:59:07;;;;;;;3.38;3.08;;;;;;;;;;5028074;28;57873;-64
2023/04/23 11:01:33;;;;;;;3.22;2.92;;;;;;;;;;5028260;28;58742;-64
2023/04/23 11:03:59;;;;;;;2.77;2.57;;;;;;;;;;5029524;28;58595;-64
2023/04/23 11:06:43;;;;;;;2.85;2.63;;;;;;;;;;5029785;27;59278;-64
2023/04/23 11:09:26;;;;;;;2.42;2.22;;;;;;;;;;5028555;28;58435;-64
2023/04/23 11:11:53;;;;;;;2.47;2.20;;;;;;;;;;5029062;28;58478;-64
2023/04/23 11:14:18;;;;;;;3.38;2.50;;;;;;;;;;5027932;28;59056;-64
2023/04/23 11:16:43;;;;;;;2.40;1.85;;;;;;;;;;5029765;28;58327;-65
2023/04/23 11:19:14;;;;;;;2.20;1.97;;;;;;;;;;5027214;28;58730;-65
2023/04/23 11:21:58;;;;;;;2.72;2.22;;;;;;;;;;5027852;28;58755;-65
2023/04/23 11:24:26;;;;;;;2.15;1.95;;;;;;;;;;5029667;28;58431;-66
2023/04/23 11:26:52;;;;;;;2.33;2.13;;;;;;;;;;5025172;28;59082;-72
2023/04/23 11:29:20;;;;;;;2.58;2.10;;;;;;;;;;5026432;28;58830;-68
2023/04/23 11:31:45;;;;;;;3.10;2.50;;;;;;;;;;5025653;28;58529;-68
2023/04/23 11:34:10;;;;;;;5.50;2.50;;;;;;;;;;5028624;28;58639;-69
2023/04/23 11:36:36;;;;;;;3.42;2.53;;;;;;;;;;5028263;28;58704;-66
2023/04/23 11:39:02;;;;;;;2.63;2.23;;;;;;;;;;5025983;28;58462;-65
2023/04/23 11:41:28;;;;;;;2.42;2.22;;;;;;;;;;5027188;28;58964;-68
2023/04/23 11:43:54;;;;;;;2.58;1.98;;;;;;;;;;5027489;28;58794;-64
2023/04/23 11:46:19;;;;;;;4.47;1.90;;;;;;;;;;5028011;28;58886;-65
2023/04/23 11:48:45;;;;;;;1.97;1.87;;;;;;;;;;5027225;28;58299;-65
2023/04/23 11:51:10;;;;;;;1.90;1.80;;;;;;;;;;5026918;28;58410;-65
2023/04/23 11:53:35;;;;;;;2.88;1.90;;;;;;;;;;5026679;28;58422;-63
2023/04/23 11:56:00;;;;;;;2.97;2.27;;;;;;;;;;5025017;28;59009;-63
2023/04/23 11:58:25;;;;;;;3.33;1.80;;;;;;;;;;5025186;28;58676;-64
2023/04/23 12:00:56;;;;;;;17.92;2.88;;;;;;;;;;5024845;28;58394;-63
2023/04/23 12:03:24;;;;;;;1.88;1.75;;;;;;;;;;5026025;28;58752;-64
2023/04/23 12:05:50;;;;;;;2.67;1.80;;;;;;;;;;5024775;28;58810;-64
2023/04/23 12:08:16;;;;;;;1.75;1.63;;;;;;;;;;5022701;28;58662;-65
2023/04/23 12:10:43;;;;;;;1.77;1.67;;;;;;;;;;5026674;28;58359;-64
2023/04/23 12:13:12;;;;;;;5.53;2.10;;;;;;;;;;5026974;28;59065;-64
2023/04/23 12:15:51;;;;;;;3.33;2.13;;;;;;;;;;5026867;28;58293;-65
2023/04/23 12:18:16;;;;;;;1.60;1.42;;;;;;;;;;5026738;27;58743;-65
2023/04/23 12:20:41;;;;;;;1.63;1.52;;;;;;;;;;5026524;28;58346;-65
2023/04/23 12:23:07;;;;;;;3.00;1.50;;;;;;;;;;5028553;28;58809;-65
2023/04/23 12:25:32;;;;;;;2.10;1.48;;;;;;;;;;5027913;28;58314;-64
2023/04/23 12:27:59;;;;;;;2.28;1.17;;;;;;;;;;5026698;28;59778;-65
2023/04/23 12:30:27;;;;;;;4.50;1.83;;;;;;;;;;5027011;28;58192;-65
2023/04/23 12:32:57;;;;;;;1.95;1.40;;;;;;;;;;5026922;28;59135;-64
2023/04/23 12:35:36;;;;;;;2.00;1.50;;;;;;;;;;5027862;28;58992;-64
2023/04/23 12:38:03;;;;;;;3.53;1.27;;;;;;;;;;5026792;28;58309;-64
2023/04/23 12:40:28;;;;;;;2.47;1.40;;;;;;;;;;5025832;28;58842;-64
2023/04/23 12:42:53;;;;;;;1.83;1.73;;;;;;;;;;5025276;28;58399;-64
2023/04/23 12:45:18;;;;;;;1.33;1.03;;;;;;;;;;5026780;28;58828;-64
2023/04/23 12:47:44;;;;;;;2.33;1.50;;;;;;;;;;5025442;28;58837;-64
2023/04/23 12:50:09;;;;;;;1.85;1.42;;;;;;;;;;5026244;28;58245;-65
2023/04/23 12:52:34;;;;;;;2.67;1.38;;;;;;;;;;5025127;28;59921;-63
2023/04/23 12:55:00;;;;;;;5.88;1.50;;;;;;;;;;5024700;28;58386;-65
2023/04/23 12:57:26;;;;;;;2.70;1.60;;;;;;;;;;5026300;28;58533;-64
2023/04/23 12:59:53;;;;;;;2.70;2.00;;;;;;;;;;5027308;28;58402;-63
2023/04/23 13:02:18;;;;;;;1.67;1.38;;;;;;;;;;5027481;28;58574;-63
2023/04/23 13:04:43;;;;;;;2.17;1.27;;;;;;;;;;5027366;28;58432;-63
2023/04/23 13:07:09;;;;;;;3.13;1.90;;;;;;;;;;5026840;28;58356;-62
2023/04/23 13:09:34;;;;;;;1.27;1.17;;;;;;;;;;5026207;28;58770;-62
2023/04/23 13:12:01;;;;;;;3.42;1.60;;;;;;;;;;5027522;28;58396;-61
2023/04/23 13:14:26;;;;;;;2.38;1.58;;;;;;;;;;5027729;28;58319;-62
2023/04/23 13:16:52;;;;;;;2.30;1.80;;;;;;;;;;5027137;28;58246;-63
2023/04/23 13:19:17;;;;;;;4.13;1.40;;;;;;;;;;5026189;28;58319;-63
2023/04/23 13:21:42;;;;;;;1.47;1.37;;;;;;;;;;5025934;28;58940;-63
2023/04/23 13:24:07;;;;;;;4.07;1.25;;;;;;;;;;5028170;28;58315;-63
2023/04/23 13:26:32;;;;;;;12.50;1.70;;;;;;;;;;5027413;28;58780;-65
2023/04/23 13:28:58;;;;;;;1.73;1.60;;;;;;;;;;5026274;28;58555;-63
2023/04/23 13:31:23;;;;;;;2.75;1.50;;;;;;;;;;5027628;28;58356;-63
2023/04/23 13:33:48;;;;;;;4.67;1.40;;;;;;;;;;5023835;28;58486;-62
2023/04/23 13:36:13;;;;;;;3.28;1.60;;;;;;;;;;5026894;28;58893;-63
2023/04/23 13:38:38;;;;;;;1.33;1.23;;;;;;;;;;5027633;28;58344;-63
2023/04/23 13:41:04;;;;;;;6.13;1.73;;;;;;;;;;5023783;28;58692;-63
2023/04/23 13:43:29;;;;;;;7.83;3.60;;;;;;;;;;5026485;28;58471;-63
2023/04/23 13:45:54;;;;;;;10.50;2.53;;;;;;;;;;5026051;28;59073;-63
2023/04/23 13:48:19;;;;;;;12.63;1.53;;;;;;;;;;5026889;28;58724;-63
2023/04/23 13:50:45;;;;;;;6.53;2.57;;;;;;;;;;5024669;28;58898;-63
2023/04/23 13:53:10;;;;;;;7.53;2.70;;;;;;;;;;5026980;28;58651;-64
2023/04/23 13:55:36;;;;;;;4.80;2.33;;;;;;;;;;5026403;28;58310;-63
2023/04/23 13:58:02;;;;;;;4.97;1.65;;;;;;;;;;5027196;28;58384;-63
2023/04/23 14:00:28;;;;;;;5.93;2.03;;;;;;;;;;5024449;28;58549;-63
2023/04/23 14:02:53;;;;;;;5.13;1.80;;;;;;;;;;5025611;28;58713;-63
2023/04/23 14:05:18;;;;;;;5.82;2.53;;;;;;;;;;5025853;28;58712;-62
2023/04/23 14:07:44;;;;;;;8.87;1.73;;;;;;;;;;5024949;28;58379;-63
2023/04/23 14:10:09;;;;;;;2.60;1.60;;;;;;;;;;5027263;28;58778;-63
2023/04/23 14:12:35;;;;;;;9.38;2.28;;;;;;;;;;5026322;28;58756;-63
2023/04/23 14:15:00;;;;;;;4.87;1.93;;;;;;;;;;5022521;28;58752;-62
2023/04/23 14:17:25;;;;;;;4.90;1.67;;;;;;;;;;5026866;28;58734;-63
2023/04/23 14:19:50;;;;;;;2.53;1.67;;;;;;;;;;5023569;28;58413;-61
2023/04/23 14:22:15;;;;;;;6.32;2.63;;;;;;;;;;5022547;28;58526;-67
2023/04/23 14:24:49;;;;;;;7.55;1.60;;;;;;;;;;5024936;28;59038;-68
2023/04/23 14:27:14;;;;;;;7.63;2.63;;;;;;;;;;5022576;28;58720;-69
2023/04/23 14:29:40;;;;;;;6.32;2.75;;;;;;;;;;5027457;28;58968;-68
2023/04/23 14:32:05;;;;;;;3.50;1.30;;;;;;;;;;5027212;28;58517;-68
2023/04/23 14:34:31;;;;;;;6.93;1.73;;;;;;;;;;5025877;28;58866;-65